sensor_id;sensor_type;location;lat;lon;timestamp;pressure;altitude;pressure_sealevel;temperature;humidity
50852;BME280;43953;45.508;-122.806;2023-06-22T00:00:07;101065.50;;;23.68;44.39
50852;BME280;43953;45.508;-122.806;2023-06-22T00:00:43;101056.44;;;23.67;44.41
50852;BME280;43953;45.508;-122.806;2023-06-22T00:01:15;101061.63;;;23.69;44.37
50852;BME280;43953;45.508;-122.806;2023-06-22T00:01:47;101060.59;;;23.70;44.25
50852;BME280;43953;45.508;-122.806;2023-06-22T00:02:19;101060.81;;;23.68;44.34
50852;BME280;43953;45.508;-122.806;2023-06-22T00:02:50;101064.38;;;23.69;44.14
50852;BME280;43953;45.508;-122.806;2023-06-22T00:03:24;101058.34;;;23.72;44.28
50852;BME280;43953;45.508;-122.806;2023-06-22T00:03:55;101051.47;;;23.69;44.35
50852;BME280;43953;45.508;-122.806;2023-06-22T00:04:27;101062.75;;;23.73;44.06
50852;BME280;43953;45.508;-122.806;2023-06-22T00:04:59;101060.00;;;23.73;44.25
50852;BME280;43953;45.508;-122.806;2023-06-22T00:05:30;101049.81;;;23.68;44.06
50852;BME280;43953;45.508;-122.806;2023-06-22T00:06:02;101055.31;;;23.73;44.09
50852;BME280;43953;45.508;-122.806;2023-06-22T00:06:34;101061.63;;;23.74;44.03
50852;BME280;43953;45.508;-122.806;2023-06-22T00:07:06;101057.75;;;23.75;44.27
50852;BME280;43953;45.508;-122.806;2023-06-22T00:07:38;101057.53;;;23.71;44.11
50852;BME280;43953;45.508;-122.806;2023-06-22T00:08:09;101055.00;;;23.75;44.01
50852;BME280;43953;45.508;-122.806;2023-06-22T00:08:41;101053.13;;;23.75;44.02
50852;BME280;43953;45.508;-122.806;2023-06-22T00:09:13;101060.25;;;23.76;44.02
50852;BME280;43953;45.508;-122.806;2023-06-22T00:09:45;101051.19;;;23.76;44.17
50852;BME280;43953;45.508;-122.806;2023-06-22T00:10:16;101051.69;;;23.78;44.02
50852;BME280;43953;45.508;-122.806;2023-06-22T00:10:48;101049.25;;;23.76;44.22
50852;BME280;43953;45.508;-122.806;2023-06-22T00:11:20;101046.19;;;23.78;44.10
50852;BME280;43953;45.508;-122.806;2023-06-22T00:11:51;101052.53;;;23.78;44.10
50852;BME280;43953;45.508;-122.806;2023-06-22T00:12:23;101047.03;;;23.78;44.06
50852;BME280;43953;45.508;-122.806;2023-06-22T00:12:55;101048.66;;;23.79;44.07
50852;BME280;43953;45.508;-122.806;2023-06-22T00:13:27;101026.72;;;23.69;44.19
50852;BME280;43953;45.508;-122.806;2023-06-22T00:13:59;101051.09;;;23.81;44.09
50852;BME280;43953;45.508;-122.806;2023-06-22T00:14:31;101058.84;;;23.79;44.13
50852;BME280;43953;45.508;-122.806;2023-06-22T00:15:03;101048.34;;;23.81;44.25
50852;BME280;43953;45.508;-122.806;2023-06-22T00:15:36;101048.91;;;23.83;44.33
50852;BME280;43953;45.508;-122.806;2023-06-22T00:16:08;101048.31;;;23.86;44.19
50852;BME280;43953;45.508;-122.806;2023-06-22T00:16:40;101035.78;;;23.75;44.11
50852;BME280;43953;45.508;-122.806;2023-06-22T00:17:14;101043.41;;;23.83;44.04
50852;BME280;43953;45.508;-122.806;2023-06-22T00:17:45;101046.38;;;23.87;44.02
50852;BME280;43953;45.508;-122.806;2023-06-22T00:18:17;101043.34;;;23.88;44.21
50852;BME280;43953;45.508;-122.806;2023-06-22T00:18:49;101045.28;;;23.88;44.14
50852;BME280;43953;45.508;-122.806;2023-06-22T00:19:24;101044.97;;;23.89;44.39
50852;BME280;43953;45.508;-122.806;2023-06-22T00:19:55;101047.72;;;23.89;44.37
50852;BME280;43953;45.508;-122.806;2023-06-22T00:20:29;101044.16;;;23.89;44.29
50852;BME280;43953;45.508;-122.806;2023-06-22T00:21:01;101043.34;;;23.88;44.23
50852;BME280;43953;45.508;-122.806;2023-06-22T00:21:33;101045.53;;;23.91;44.06
50852;BME280;43953;45.508;-122.806;2023-06-22T00:22:05;101045.22;;;23.93;44.36
50852;BME280;43953;45.508;-122.806;2023-06-22T00:22:36;101040.59;;;23.88;44.33
50852;BME280;43953;45.508;-122.806;2023-06-22T00:23:10;101050.72;;;23.93;44.03
50852;BME280;43953;45.508;-122.806;2023-06-22T00:23:41;101048.81;;;23.93;43.99
50852;BME280;43953;45.508;-122.806;2023-06-22T00:24:14;101052.88;;;23.96;43.65
50852;BME280;43953;45.508;-122.806;2023-06-22T00:24:46;101049.63;;;23.94;43.66
50852;BME280;43953;45.508;-122.806;2023-06-22T00:25:17;101048.22;;;23.96;43.50
50852;BME280;43953;45.508;-122.806;2023-06-22T00:25:49;101043.00;;;23.95;43.52
50852;BME280;43953;45.508;-122.806;2023-06-22T00:26:21;101044.34;;;23.97;43.54
50852;BME280;43953;45.508;-122.806;2023-06-22T00:26:53;101048.22;;;23.96;43.80
50852;BME280;43953;45.508;-122.806;2023-06-22T00:27:24;101035.56;;;23.95;43.61
50852;BME280;43953;45.508;-122.806;2023-06-22T00:27:56;101038.59;;;23.99;43.67
50852;BME280;43953;45.508;-122.806;2023-06-22T00:28:28;101039.66;;;23.98;43.73
50852;BME280;43953;45.508;-122.806;2023-06-22T00:29:00;101042.16;;;23.99;43.75
50852;BME280;43953;45.508;-122.806;2023-06-22T00:29:31;101040.22;;;24.00;43.57
50852;BME280;43953;45.508;-122.806;2023-06-22T00:30:03;101042.16;;;23.99;43.75
50852;BME280;43953;45.508;-122.806;2023-06-22T00:30:36;101041.03;;;24.00;43.80
50852;BME280;43953;45.508;-122.806;2023-06-22T00:31:07;101039.09;;;24.01;43.80
50852;BME280;43953;45.508;-122.806;2023-06-22T00:31:39;101039.41;;;23.99;43.73
50852;BME280;43953;45.508;-122.806;2023-06-22T00:32:11;101038.81;;;24.02;43.82
50852;BME280;43953;45.508;-122.806;2023-06-22T00:32:43;101038.81;;;24.02;43.73
50852;BME280;43953;45.508;-122.806;2023-06-22T00:33:15;101045.41;;;24.01;44.01
50852;BME280;43953;45.508;-122.806;2023-06-22T00:33:47;101031.06;;;24.04;43.74
50852;BME280;43953;45.508;-122.806;2023-06-22T00:34:21;101040.97;;;24.05;43.92
50852;BME280;43953;45.508;-122.806;2023-06-22T00:34:53;101035.47;;;24.05;43.75
50852;BME280;43953;45.508;-122.806;2023-06-22T00:35:25;101029.97;;;24.05;43.74
50852;BME280;43953;45.508;-122.806;2023-06-22T00:36:00;101026.41;;;24.05;43.67
50852;BME280;43953;45.508;-122.806;2023-06-22T00:36:34;101029.97;;;24.05;43.67
50852;BME280;43953;45.508;-122.806;2023-06-22T00:37:06;101027.72;;;24.07;43.79
50852;BME280;43953;45.508;-122.806;2023-06-22T00:37:38;101024.16;;;24.07;43.68
50852;BME280;43953;45.508;-122.806;2023-06-22T00:38:13;101029.09;;;24.10;43.72
50852;BME280;43953;45.508;-122.806;2023-06-22T00:38:44;101033.78;;;24.10;43.51
50852;BME280;43953;45.508;-122.806;2023-06-22T00:39:16;101021.66;;;24.11;43.76
50852;BME280;43953;45.508;-122.806;2023-06-22T00:39:48;101029.91;;;24.11;43.49
50852;BME280;43953;45.508;-122.806;2023-06-22T00:40:20;101021.41;;;24.07;43.59
50852;BME280;43953;45.508;-122.806;2023-06-22T00:40:52;101023.59;;;24.10;43.74
50852;BME280;43953;45.508;-122.806;2023-06-22T00:41:24;101025.25;;;24.11;43.44
50852;BME280;43953;45.508;-122.806;2023-06-22T00:41:59;101019.75;;;24.11;43.73
50852;BME280;43953;45.508;-122.806;2023-06-22T00:42:31;101019.44;;;24.13;43.54
50852;BME280;43953;45.508;-122.806;2023-06-22T00:43:04;101028.22;;;24.15;43.54
50852;BME280;43953;45.508;-122.806;2023-06-22T00:43:36;101018.63;;;24.12;43.59
50852;BME280;43953;45.508;-122.806;2023-06-22T00:44:08;101024.34;;;24.16;43.58
50852;BME280;43953;45.508;-122.806;2023-06-22T00:44:39;101019.97;;;24.15;43.60
50852;BME280;43953;45.508;-122.806;2023-06-22T00:45:11;101024.34;;;24.16;43.63
50852;BME280;43953;45.508;-122.806;2023-06-22T00:45:43;101024.34;;;24.16;43.63
50852;BME280;43953;45.508;-122.806;2023-06-22T00:46:15;101026.00;;;24.17;43.70
50852;BME280;43953;45.508;-122.806;2023-06-22T00:46:47;101021.09;;;24.14;43.77
50852;BME280;43953;45.508;-122.806;2023-06-22T00:47:19;101016.69;;;24.13;43.51
50852;BME280;43953;45.508;-122.806;2023-06-22T00:47:52;101029.25;;;24.19;43.63
50852;BME280;43953;45.508;-122.806;2023-06-22T00:48:24;101033.66;;;24.20;43.50
50852;BME280;43953;45.508;-122.806;2023-06-22T00:48:56;101019.91;;;24.20;43.60
50852;BME280;43953;45.508;-122.806;2023-06-22T00:49:28;101003.06;;;24.02;43.64
50852;BME280;43953;45.508;-122.806;2023-06-22T00:50:00;101027.06;;;24.21;43.63
50852;BME280;43953;45.508;-122.806;2023-06-22T00:50:33;101016.84;;;24.21;43.42
50852;BME280;43953;45.508;-122.806;2023-06-22T00:51:05;101024.00;;;24.22;43.43
50852;BME280;43953;45.508;-122.806;2023-06-22T00:51:37;101024.00;;;24.22;43.66
50852;BME280;43953;45.508;-122.806;2023-06-22T00:52:10;101020.16;;;24.23;43.69
50852;BME280;43953;45.508;-122.806;2023-06-22T00:52:45;101021.78;;;24.24;43.64
50852;BME280;43953;45.508;-122.806;2023-06-22T00:53:18;101018.22;;;24.24;43.54
50852;BME280;43953;45.508;-122.806;2023-06-22T00:53:51;101017.09;;;24.25;43.70
50852;BME280;43953;45.508;-122.806;2023-06-22T00:54:24;101017.94;;;24.25;43.57
50852;BME280;43953;45.508;-122.806;2023-06-22T00:54:57;101019.56;;;24.26;43.53
50852;BME280;43953;45.508;-122.806;2023-06-22T00:55:29;101017.09;;;24.25;43.59
50852;BME280;43953;45.508;-122.806;2023-06-22T00:56:01;101011.00;;;24.28;43.40
50852;BME280;43953;45.508;-122.806;2023-06-22T00:56:34;101010.19;;;24.27;43.47
50852;BME280;43953;45.508;-122.806;2023-06-22T00:57:08;101018.16;;;24.29;43.53
50852;BME280;43953;45.508;-122.806;2023-06-22T00:57:43;101018.16;;;24.29;43.67
50852;BME280;43953;45.508;-122.806;2023-06-22T00:58:15;101012.13;;;24.27;43.64
50852;BME280;43953;45.508;-122.806;2023-06-22T00:58:47;101004.16;;;24.25;43.53
50852;BME280;43953;45.508;-122.806;2023-06-22T00:59:19;101009.59;;;24.30;43.55
50852;BME280;43953;45.508;-122.806;2023-06-22T00:59:51;101018.66;;;24.31;43.39
50852;BME280;43953;45.508;-122.806;2023-06-22T01:00:24;101004.09;;;24.30;43.44
50852;BME280;43953;45.508;-122.806;2023-06-22T01:00:56;101003.28;;;24.30;43.09
50852;BME280;43953;45.508;-122.806;2023-06-22T01:01:28;101012.88;;;24.33;43.57
50852;BME280;43953;45.508;-122.806;2023-06-22T01:02:00;101009.00;;;24.34;43.44
50852;BME280;43953;45.508;-122.806;2023-06-22T01:02:32;100996.16;;;24.29;43.47
50852;BME280;43953;45.508;-122.806;2023-06-22T01:03:04;101009.81;;;24.34;43.72
50852;BME280;43953;45.508;-122.806;2023-06-22T01:03:39;101008.19;;;24.33;43.42
50852;BME280;43953;45.508;-122.806;2023-06-22T01:04:11;101002.16;;;24.31;43.62
50852;BME280;43953;45.508;-122.806;2023-06-22T01:04:43;100999.66;;;24.35;43.52
50852;BME280;43953;45.508;-122.806;2023-06-22T01:05:16;101011.47;;;24.35;43.37
50852;BME280;43953;45.508;-122.806;2023-06-22T01:05:49;101005.16;;;24.35;43.43
50852;BME280;43953;45.508;-122.806;2023-06-22T01:06:35;101004.31;;;24.34;43.77
50852;BME280;43953;45.508;-122.806;2023-06-22T01:08:05;101015.56;;;24.38;43.62
50852;BME280;43953;45.508;-122.806;2023-06-22T01:09:06;101002.63;;;24.38;43.83
50852;BME280;43953;45.508;-122.806;2023-06-22T01:10:04;100999.88;;;24.38;43.58
50852;BME280;43953;45.508;-122.806;2023-06-22T01:10:55;101004.78;;;24.41;43.86
50852;BME280;43953;45.508;-122.806;2023-06-22T01:11:37;101002.03;;;24.41;43.82
50852;BME280;43953;45.508;-122.806;2023-06-22T01:12:14;101000.94;;;24.42;43.68
50852;BME280;43953;45.508;-122.806;2023-06-22T01:12:52;100999.84;;;24.43;43.43
50852;BME280;43953;45.508;-122.806;2023-06-22T01:13:27;100992.41;;;24.44;43.49
50852;BME280;43953;45.508;-122.806;2023-06-22T01:14:43;100994.03;;;24.45;43.52
50852;BME280;43953;45.508;-122.806;2023-06-22T01:15:39;101005.84;;;24.45;43.66
50852;BME280;43953;45.508;-122.806;2023-06-22T01:16:49;100995.38;;;24.47;43.51
50852;BME280;43953;45.508;-122.806;2023-06-22T01:17:23;100998.94;;;24.48;43.56
50852;BME280;43953;45.508;-122.806;2023-06-22T01:17:57;100997.31;;;24.47;43.26
50852;BME280;43953;45.508;-122.806;2023-06-22T01:18:32;101001.16;;;24.46;43.74
50852;BME280;43953;45.508;-122.806;2023-06-22T01:19:46;101002.00;;;24.46;43.77
50852;BME280;43953;45.508;-122.806;2023-06-22T01:20:20;100993.75;;;24.46;43.67
50852;BME280;43953;45.508;-122.806;2023-06-22T01:20:54;100997.31;;;24.47;43.27
50852;BME280;43953;45.508;-122.806;2023-06-22T01:21:31;100998.66;;;24.49;43.38
50852;BME280;43953;45.508;-122.806;2023-06-22T01:22:05;100994.25;;;24.48;43.26
50852;BME280;43953;45.508;-122.806;2023-06-22T01:24:22;100994.78;;;24.50;43.80
50852;BME280;43953;45.508;-122.806;2023-06-22T01:24:57;100993.66;;;24.51;43.28
50852;BME280;43953;45.508;-122.806;2023-06-22T01:25:48;100987.34;;;24.51;43.78
50852;BME280;43953;45.508;-122.806;2023-06-22T01:28:17;100991.44;;;24.54;43.34
50852;BME280;43953;45.508;-122.806;2023-06-22T01:28:54;101000.50;;;24.54;43.29
50852;BME280;43953;45.508;-122.806;2023-06-22T01:29:27;100994.19;;;24.54;43.34
50852;BME280;43953;45.508;-122.806;2023-06-22T01:30:01;100996.94;;;24.54;43.27
50852;BME280;43953;45.508;-122.806;2023-06-22T01:30:34;100996.94;;;24.54;43.26
50852;BME280;43953;45.508;-122.806;2023-06-22T01:31:06;100990.31;;;24.55;43.31
50852;BME280;43953;45.508;-122.806;2023-06-22T01:31:40;100991.44;;;24.54;43.29
50852;BME280;43953;45.508;-122.806;2023-06-22T01:32:13;100991.16;;;24.55;43.15
50852;BME280;43953;45.508;-122.806;2023-06-22T01:32:47;100998.56;;;24.55;43.48
50852;BME280;43953;45.508;-122.806;2023-06-22T01:33:20;100998.56;;;24.55;43.28
50852;BME280;43953;45.508;-122.806;2023-06-22T01:33:55;101000.22;;;24.56;43.57
50852;BME280;43953;45.508;-122.806;2023-06-22T01:34:29;100987.88;;;24.53;43.48
50852;BME280;43953;45.508;-122.806;2023-06-22T01:35:05;100984.38;;;24.47;43.62
50852;BME280;43953;45.508;-122.806;2023-06-22T01:35:38;100982.91;;;24.55;43.66
50852;BME280;43953;45.508;-122.806;2023-06-22T01:36:10;100997.47;;;24.56;43.59
50852;BME280;43953;45.508;-122.806;2023-06-22T01:36:43;100996.06;;;24.58;43.53
50852;BME280;43953;45.508;-122.806;2023-06-22T01:37:16;100992.19;;;24.59;43.75
50852;BME280;43953;45.508;-122.806;2023-06-22T01:37:48;100991.38;;;24.59;43.75
50852;BME280;43953;45.508;-122.806;2023-06-22T01:38:21;100994.13;;;24.59;43.74
50852;BME280;43953;45.508;-122.806;2023-06-22T01:38:54;100995.75;;;24.60;43.79
50852;BME280;43953;45.508;-122.806;2023-06-22T01:39:26;100987.22;;;24.61;43.72
50852;BME280;43953;45.508;-122.806;2023-06-22T01:39:59;100992.72;;;24.61;43.91
50852;BME280;43953;45.508;-122.806;2023-06-22T01:40:32;100997.09;;;24.62;44.02
50852;BME280;43953;45.508;-122.806;2023-06-22T01:41:04;100989.66;;;24.63;43.89
50852;BME280;43953;45.508;-122.806;2023-06-22T01:41:38;100990.47;;;24.63;44.15
50852;BME280;43953;45.508;-122.806;2023-06-22T01:42:10;100986.91;;;24.63;44.15
50852;BME280;43953;45.508;-122.806;2023-06-22T01:42:43;100989.38;;;24.64;44.13
50852;BME280;43953;45.508;-122.806;2023-06-22T01:43:16;100990.19;;;24.65;43.85
50852;BME280;43953;45.508;-122.806;2023-06-22T01:43:48;100988.53;;;24.64;43.97
50852;BME280;43953;45.508;-122.806;2023-06-22T01:44:21;100985.50;;;24.65;44.13
50852;BME280;43953;45.508;-122.806;2023-06-22T01:44:54;100985.50;;;24.65;44.08
50852;BME280;43953;45.508;-122.806;2023-06-22T01:45:27;100985.22;;;24.67;44.46
50852;BME280;43953;45.508;-122.806;2023-06-22T01:46:01;100985.22;;;24.67;44.26
50852;BME280;43953;45.508;-122.806;2023-06-22T01:46:34;100993.16;;;24.68;44.54
50852;BME280;43953;45.508;-122.806;2023-06-22T01:47:07;100988.47;;;24.69;44.37
50852;BME280;43953;45.508;-122.806;2023-06-22T01:47:39;100989.28;;;24.69;44.52
50852;BME280;43953;45.508;-122.806;2023-06-22T01:48:11;100988.78;;;24.67;44.46
50852;BME280;43953;45.508;-122.806;2023-06-22T01:48:43;100992.56;;;24.71;44.47
50852;BME280;43953;45.508;-122.806;2023-06-22T01:49:15;100991.75;;;24.71;44.53
50852;BME280;43953;45.508;-122.806;2023-06-22T01:49:47;100987.06;;;24.71;44.23
50852;BME280;43953;45.508;-122.806;2023-06-22T01:50:19;100983.50;;;24.71;44.22
50852;BME280;43953;45.508;-122.806;2023-06-22T01:50:51;100979.63;;;24.72;44.42
50852;BME280;43953;45.508;-122.806;2023-06-22T01:51:24;100983.72;;;24.74;44.67
50852;BME280;43953;45.508;-122.806;2023-06-22T01:51:56;100984.03;;;24.73;44.42
50852;BME280;43953;45.508;-122.806;2023-06-22T01:52:27;100982.59;;;24.75;44.45
50852;BME280;43953;45.508;-122.806;2023-06-22T01:52:59;100985.66;;;24.74;44.53
50852;BME280;43953;45.508;-122.806;2023-06-22T01:53:31;100980.69;;;24.76;44.55
50852;BME280;43953;45.508;-122.806;2023-06-22T01:54:03;100978.75;;;24.77;44.40
50852;BME280;43953;45.508;-122.806;2023-06-22T01:54:34;100980.38;;;24.78;44.56
50852;BME280;43953;45.508;-122.806;2023-06-22T01:55:06;100983.94;;;24.78;44.34
50852;BME280;43953;45.508;-122.806;2023-06-22T01:55:39;100986.69;;;24.78;44.65
50852;BME280;43953;45.508;-122.806;2023-06-22T01:56:10;100986.69;;;24.78;44.51
50852;BME280;43953;45.508;-122.806;2023-06-22T01:56:43;100973.44;;;24.80;44.52
50852;BME280;43953;45.508;-122.806;2023-06-22T01:57:14;100979.78;;;24.81;44.53
50852;BME280;43953;45.508;-122.806;2023-06-22T01:57:46;100950.31;;;24.62;44.44
50852;BME280;43953;45.508;-122.806;2023-06-22T01:58:20;100975.06;;;24.81;44.60
50852;BME280;43953;45.508;-122.806;2023-06-22T02:00:00;100982.25;;;24.82;44.50
50852;BME280;43953;45.508;-122.806;2023-06-22T02:00:37;100977.22;;;24.84;44.54
50852;BME280;43953;45.508;-122.806;2023-06-22T02:01:11;100976.13;;;24.85;44.29
50852;BME280;43953;45.508;-122.806;2023-06-22T02:02:06;100977.75;;;24.86;44.52
50852;BME280;43953;45.508;-122.806;2023-06-22T02:03:21;100976.63;;;24.87;44.25
50852;BME280;43953;45.508;-122.806;2023-06-22T02:04:02;100976.34;;;24.89;44.08
50852;BME280;43953;45.508;-122.806;2023-06-22T02:05:17;100944.63;;;24.72;43.86
50852;BME280;43953;45.508;-122.806;2023-06-22T02:06:07;100974.94;;;24.91;44.32
50852;BME280;43953;45.508;-122.806;2023-06-22T02:06:43;100978.19;;;24.93;43.94
50852;BME280;43953;45.508;-122.806;2023-06-22T02:07:18;100975.16;;;24.95;43.88
50852;BME280;43953;45.508;-122.806;2023-06-22T02:08:07;100984.53;;;24.94;44.15
50852;BME280;43953;45.508;-122.806;2023-06-22T02:08:55;100982.59;;;24.94;44.10
50852;BME280;43953;45.508;-122.806;2023-06-22T02:09:29;100972.13;;;24.96;44.09
50852;BME280;43953;45.508;-122.806;2023-06-22T02:10:04;100926.88;;;24.65;44.06
50852;BME280;43953;45.508;-122.806;2023-06-22T02:10:38;100972.91;;;24.97;43.83
50852;BME280;43953;45.508;-122.806;2023-06-22T02:11:13;100973.22;;;24.95;43.86
50852;BME280;43953;45.508;-122.806;2023-06-22T02:11:47;100972.91;;;24.97;43.93
50852;BME280;43953;45.508;-122.806;2023-06-22T02:12:25;100968.00;;;24.94;44.04
50852;BME280;43953;45.508;-122.806;2023-06-22T02:12:59;100973.75;;;24.97;44.08
50852;BME280;43953;45.508;-122.806;2023-06-22T02:13:32;100985.56;;;24.98;44.28
50852;BME280;43953;45.508;-122.806;2023-06-22T02:14:05;100973.75;;;24.97;44.11
50852;BME280;43953;45.508;-122.806;2023-06-22T02:14:39;100972.13;;;24.96;44.05
50852;BME280;43953;45.508;-122.806;2023-06-22T02:15:11;100978.94;;;24.99;44.07
50852;BME280;43953;45.508;-122.806;2023-06-22T02:15:44;100978.44;;;24.97;44.07
50852;BME280;43953;45.508;-122.806;2023-06-22T02:16:17;100981.41;;;25.01;44.03
50852;BME280;43953;45.508;-122.806;2023-06-22T02:16:50;100979.25;;;24.97;44.15
50852;BME280;43953;45.508;-122.806;2023-06-22T02:17:23;100975.06;;;25.00;43.97
50852;BME280;43953;45.508;-122.806;2023-06-22T02:17:55;100974.75;;;25.02;44.25
50852;BME280;43953;45.508;-122.806;2023-06-22T02:18:27;100967.63;;;25.01;44.20
50852;BME280;43953;45.508;-122.806;2023-06-22T02:19:01;100963.09;;;24.91;44.26
50852;BME280;43953;45.508;-122.806;2023-06-22T02:19:37;100973.66;;;25.03;44.30
50852;BME280;43953;45.508;-122.806;2023-06-22T02:20:12;100970.38;;;25.01;44.36
50852;BME280;43953;45.508;-122.806;2023-06-22T02:20:44;100974.75;;;25.02;44.16
50852;BME280;43953;45.508;-122.806;2023-06-22T02:21:19;100970.91;;;25.03;44.41
50852;BME280;43953;45.508;-122.806;2023-06-22T02:21:51;100971.50;;;25.00;44.17
50852;BME280;43953;45.508;-122.806;2023-06-22T02:22:23;100977.22;;;25.03;44.06
50852;BME280;43953;45.508;-122.806;2023-06-22T02:22:55;100967.03;;;25.04;44.12
50852;BME280;43953;45.508;-122.806;2023-06-22T02:23:26;100972.53;;;25.04;44.45
50852;BME280;43953;45.508;-122.806;2023-06-22T02:23:58;100967.03;;;25.04;44.42
50852;BME280;43953;45.508;-122.806;2023-06-22T02:24:30;100966.22;;;25.03;44.40
50852;BME280;43953;45.508;-122.806;2023-06-22T02:25:03;100973.34;;;25.04;44.38
50852;BME280;43953;45.508;-122.806;2023-06-22T02:25:35;100968.16;;;25.03;44.41
50852;BME280;43953;45.508;-122.806;2023-06-22T02:26:07;100959.88;;;25.03;44.53
50852;BME280;43953;45.508;-122.806;2023-06-22T02:26:39;100882.53;;;24.47;44.68
50852;BME280;43953;45.508;-122.806;2023-06-22T02:27:13;100973.06;;;25.06;44.45
50852;BME280;43953;45.508;-122.806;2023-06-22T02:27:45;100974.97;;;25.05;44.28
50852;BME280;43953;45.508;-122.806;2023-06-22T02:28:17;100971.94;;;25.07;44.08
50852;BME280;43953;45.508;-122.806;2023-06-22T02:28:48;100971.94;;;25.07;44.01
50852;BME280;43953;45.508;-122.806;2023-06-22T02:29:20;100968.06;;;25.08;43.61
50852;BME280;43953;45.508;-122.806;2023-06-22T02:29:52;100968.06;;;25.08;44.10
50852;BME280;43953;45.508;-122.806;2023-06-22T02:30:23;100968.91;;;25.08;44.08
50852;BME280;43953;45.508;-122.806;2023-06-22T02:30:55;100962.31;;;25.04;44.36
50852;BME280;43953;45.508;-122.806;2023-06-22T02:31:27;100960.38;;;25.05;44.01
50852;BME280;43953;45.508;-122.806;2023-06-22T02:32:01;100966.13;;;25.08;44.07
50852;BME280;43953;45.508;-122.806;2023-06-22T02:32:33;100972.47;;;25.09;44.06
50852;BME280;43953;45.508;-122.806;2023-06-22T02:33:05;100969.72;;;25.09;44.45
50852;BME280;43953;45.508;-122.806;2023-06-22T02:33:37;100971.34;;;25.10;44.36
50852;BME280;43953;45.508;-122.806;2023-06-22T02:34:09;100966.34;;;25.12;44.71
50852;BME280;43953;45.508;-122.806;2023-06-22T02:34:40;100958.69;;;25.09;44.36
50852;BME280;43953;45.508;-122.806;2023-06-22T02:35:14;100967.97;;;25.13;44.24
50852;BME280;43953;45.508;-122.806;2023-06-22T02:35:45;100962.47;;;25.13;44.32
50852;BME280;43953;45.508;-122.806;2023-06-22T02:36:20;100967.16;;;25.12;44.70
50852;BME280;43953;45.508;-122.806;2023-06-22T02:36:53;100957.28;;;25.11;44.72
50852;BME280;43953;45.508;-122.806;2023-06-22T02:37:25;100964.97;;;25.14;44.84
50852;BME280;43953;45.508;-122.806;2023-06-22T02:38:01;100961.38;;;25.14;44.76
50852;BME280;43953;45.508;-122.806;2023-06-22T02:38:33;100964.66;;;25.16;44.76
50852;BME280;43953;45.508;-122.806;2023-06-22T02:39:05;100967.41;;;25.16;44.83
50852;BME280;43953;45.508;-122.806;2023-06-22T02:39:37;100966.28;;;25.17;44.76
50852;BME280;43953;45.508;-122.806;2023-06-22T02:40:09;100969.88;;;25.17;44.97
50852;BME280;43953;45.508;-122.806;2023-06-22T02:40:41;100945.00;;;25.04;45.05
50852;BME280;43953;45.508;-122.806;2023-06-22T02:41:14;100962.41;;;25.18;45.17
50852;BME280;43953;45.508;-122.806;2023-06-22T02:41:50;100958.53;;;25.19;44.80
50852;BME280;43953;45.508;-122.806;2023-06-22T02:42:22;100965.47;;;25.16;44.70
50852;BME280;43953;45.508;-122.806;2023-06-22T02:42:54;100961.28;;;25.19;44.97
50852;BME280;43953;45.508;-122.806;2023-06-22T02:43:25;100960.16;;;25.20;44.90
50852;BME280;43953;45.508;-122.806;2023-06-22T02:43:57;100958.53;;;25.19;44.84
50852;BME280;43953;45.508;-122.806;2023-06-22T02:44:29;100961.81;;;25.21;44.71
50852;BME280;43953;45.508;-122.806;2023-06-22T02:45:01;100964.56;;;25.21;44.99
50852;BME280;43953;45.508;-122.806;2023-06-22T02:45:32;100961.81;;;25.21;44.67
50852;BME280;43953;45.508;-122.806;2023-06-22T02:46:04;100958.31;;;25.15;44.81
50852;BME280;43953;45.508;-122.806;2023-06-22T02:46:36;100964.56;;;25.21;45.16
50852;BME280;43953;45.508;-122.806;2023-06-22T02:47:07;100968.94;;;25.22;44.87
50852;BME280;43953;45.508;-122.806;2023-06-22T02:47:39;100962.34;;;25.23;44.92
50852;BME280;43953;45.508;-122.806;2023-06-22T02:48:11;100959.06;;;25.21;44.48
50852;BME280;43953;45.508;-122.806;2023-06-22T02:48:42;100963.16;;;25.24;44.40
50852;BME280;43953;45.508;-122.806;2023-06-22T02:49:14;100959.88;;;25.22;44.50
50852;BME280;43953;45.508;-122.806;2023-06-22T02:49:46;100960.41;;;25.24;44.03
50852;BME280;43953;45.508;-122.806;2023-06-22T02:50:18;100946.50;;;25.15;44.08
50852;BME280;43953;45.508;-122.806;2023-06-22T02:50:49;100960.09;;;25.25;44.49
50852;BME280;43953;45.508;-122.806;2023-06-22T02:51:21;100955.69;;;25.24;44.25
50852;BME280;43953;45.508;-122.806;2023-06-22T02:51:53;100960.41;;;25.24;44.37
50852;BME280;43953;45.508;-122.806;2023-06-22T02:52:26;100956.22;;;25.26;44.34
50852;BME280;43953;45.508;-122.806;2023-06-22T02:52:58;100957.31;;;25.25;44.43
50852;BME280;43953;45.508;-122.806;2023-06-22T02:53:32;100964.50;;;25.26;44.62
50852;BME280;43953;45.508;-122.806;2023-06-22T02:54:03;100934.38;;;25.11;44.77
50852;BME280;43953;45.508;-122.806;2023-06-22T02:54:35;100954.56;;;25.25;44.43
50852;BME280;43953;45.508;-122.806;2023-06-22T02:55:07;100956.22;;;25.26;44.48
50852;BME280;43953;45.508;-122.806;2023-06-22T02:55:39;100955.38;;;25.26;44.55
50852;BME280;43953;45.508;-122.806;2023-06-22T02:56:11;100966.13;;;25.27;44.20
50852;BME280;43953;45.508;-122.806;2023-06-22T02:56:44;100962.22;;;25.28;44.60